createdAt,value
2022-10-10T00:02:07.164Z,16.50
2022-10-10T00:04:35.457Z,17.85
2022-10-10T00:07:03.881Z,17.45
2022-10-10T00:09:32.145Z,16.88
2022-10-10T00:12:00.665Z,16.58
2022-10-10T00:14:32.508Z,15.20
2022-10-10T00:17:01.070Z,14.15
2022-10-10T00:19:29.272Z,14.20
2022-10-10T00:21:57.686Z,14.55
2022-10-10T00:24:25.922Z,13.38
2022-10-10T00:26:54.252Z,14.60
2022-10-10T00:29:22.516Z,13.90
2022-10-10T00:31:52.363Z,13.90
2022-10-10T00:34:20.740Z,13.20
2022-10-10T00:36:49.352Z,13.63
2022-10-10T00:39:17.560Z,14.02
2022-10-10T00:41:45.915Z,14.18
2022-10-10T00:44:15.830Z,14.10
2022-10-10T00:46:44.548Z,15.52
2022-10-10T00:49:19.684Z,14.98
2022-10-10T00:51:49.552Z,13.88
2022-10-10T00:54:19.588Z,14.02
2022-10-10T00:56:51.175Z,15.02
2022-10-10T00:59:20.393Z,14.23
2022-10-10T01:01:48.904Z,14.30
2022-10-10T01:04:33.334Z,13.45
2022-10-10T01:07:03.322Z,14.50
2022-10-10T01:09:32.109Z,14.85
2022-10-10T01:12:08.100Z,14.48
2022-10-10T01:14:40.580Z,14.93
2022-10-10T01:17:13.834Z,13.52
2022-10-10T01:19:59.612Z,16.13
2022-10-10T01:22:32.096Z,13.95
2022-10-10T01:25:06.757Z,15.60
2022-10-10T01:27:36.190Z,14.63
2022-10-10T01:30:09.298Z,15.27
2022-10-10T01:32:41.455Z,15.02
2022-10-10T01:35:19.925Z,14.45
2022-10-10T01:37:50.585Z,15.68
2022-10-10T01:40:24.784Z,14.77
2022-10-10T01:42:56.322Z,13.27
2022-10-10T01:47:55.432Z,13.07
2022-10-10T01:50:26.051Z,12.38
2022-10-10T01:53:03.200Z,13.40
2022-10-10T01:55:44.068Z,11.95
2022-10-10T01:58:22.095Z,10.73
2022-10-10T02:00:55.890Z,12.93
2022-10-10T02:03:28.546Z,11.55
2022-10-10T02:06:00.040Z,11.00
2022-10-10T02:08:32.836Z,10.63
2022-10-10T02:11:02.832Z,10.93
2022-10-10T02:13:35.814Z,10.93
2022-10-10T02:16:07.386Z,10.15
2022-10-10T02:18:37.206Z,10.93
2022-10-10T02:21:07.808Z,10.75
2022-10-10T02:23:36.352Z,10.52
2022-10-10T02:26:04.987Z,11.65
2022-10-10T02:28:38.181Z,10.38
2022-10-10T02:31:12.438Z,9.73
2022-10-10T02:33:43.909Z,10.50
2022-10-10T02:36:12.272Z,10.32
2022-10-10T02:38:41.194Z,9.63
2022-10-10T02:41:10.954Z,10.88
2022-10-10T02:43:40.777Z,9.85
2022-10-10T02:46:14.055Z,9.45
2022-10-10T02:48:42.852Z,9.60
2022-10-10T02:51:11.322Z,9.07
2022-10-10T02:53:40.092Z,8.82
2022-10-10T02:56:08.405Z,8.27
2022-10-10T02:58:36.887Z,9.13
2022-10-10T03:01:05.261Z,9.18
2022-10-10T03:03:35.179Z,8.70
2022-10-10T03:06:03.543Z,8.93
2022-10-10T03:08:32.186Z,9.40
2022-10-10T03:11:01.495Z,8.18
2022-10-10T03:13:29.977Z,8.25
2022-10-10T03:15:58.318Z,8.32
2022-10-10T03:18:27.046Z,8.38
2022-10-10T03:20:57.854Z,8.40
2022-10-10T03:23:26.409Z,8.32
2022-10-10T03:25:54.788Z,8.02
2022-10-10T03:28:23.026Z,8.73
2022-10-10T03:30:51.458Z,7.53
2022-10-10T03:33:19.630Z,7.43
2022-10-10T03:35:48.136Z,7.32
2022-10-10T03:38:17.803Z,7.82
2022-10-10T03:40:46.686Z,7.60
2022-10-10T03:43:15.618Z,8.82
2022-10-10T03:45:44.894Z,7.93
2022-10-10T03:48:13.411Z,8.38
2022-10-10T03:50:41.851Z,8.95
2022-10-10T03:53:10.363Z,8.18
2022-10-10T03:55:41.894Z,10.52
2022-10-10T04:00:38.221Z,7.45
2022-10-10T04:03:08.202Z,8.30
2022-10-10T04:05:37.310Z,6.57
2022-10-10T04:08:06.339Z,6.90
2022-10-10T04:10:34.832Z,7.57
2022-10-10T04:13:04.382Z,6.28
2022-10-10T04:15:32.909Z,7.05
2022-10-10T04:18:01.441Z,7.53
2022-10-10T04:20:29.834Z,6.95
2022-10-10T04:22:58.047Z,6.78
2022-10-10T04:25:26.670Z,6.32
2022-10-10T04:27:59.928Z,7.45
2022-10-10T04:30:33.787Z,6.63
2022-10-10T04:33:02.246Z,6.40
2022-10-10T04:35:31.027Z,7.32
2022-10-10T04:37:59.197Z,7.13
2022-10-10T04:40:27.673Z,6.50
2022-10-10T04:42:56.178Z,6.28
2022-10-10T04:45:26.730Z,6.30
2022-10-10T04:47:56.837Z,7.40
2022-10-10T04:50:25.530Z,7.57
2022-10-10T04:52:54.125Z,6.43
2022-10-10T04:55:22.571Z,6.47
2022-10-10T04:57:50.724Z,6.80
2022-10-10T05:00:19.213Z,6.50
2022-10-10T05:02:47.443Z,6.13
2022-10-10T05:05:17.520Z,6.20
2022-10-10T05:07:45.665Z,6.53
2022-10-10T05:10:14.023Z,5.72
2022-10-10T05:12:42.155Z,6.40
2022-10-10T05:15:11.348Z,5.30
2022-10-10T05:17:39.535Z,5.97
2022-10-10T05:20:08.465Z,6.50
2022-10-10T05:22:38.237Z,5.97
2022-10-10T05:25:07.534Z,6.18
2022-10-10T05:27:35.687Z,7.10
2022-10-10T05:30:04.084Z,6.65
2022-10-10T05:32:32.442Z,6.10
2022-10-10T05:35:00.935Z,5.80
2022-10-10T05:37:29.107Z,6.35
2022-10-10T05:39:58.864Z,6.13
2022-10-10T05:42:27.291Z,7.13
2022-10-10T05:44:55.924Z,5.53
2022-10-10T05:47:27.659Z,5.65
2022-10-10T05:49:56.625Z,6.90
2022-10-10T05:52:24.833Z,6.88
2022-10-10T05:54:53.931Z,5.38
2022-10-10T05:57:23.464Z,5.97
2022-10-10T05:59:51.763Z,5.00
2022-10-10T06:02:19.890Z,5.53
2022-10-10T06:04:48.349Z,5.60
2022-10-10T06:07:16.740Z,5.80
2022-10-10T06:09:45.357Z,4.70
2022-10-10T06:12:13.429Z,5.03
2022-10-10T06:14:43.331Z,5.22
2022-10-10T06:17:11.425Z,5.85
2022-10-10T06:19:39.765Z,4.82
2022-10-10T06:22:07.900Z,4.90
2022-10-10T06:24:36.272Z,5.40
2022-10-10T06:27:04.883Z,5.40
2022-10-10T06:29:33.230Z,4.35
2022-10-10T06:32:02.909Z,4.53
2022-10-10T06:34:31.318Z,4.45
2022-10-10T06:36:59.595Z,4.20
2022-10-10T06:39:27.875Z,4.05
2022-10-10T06:41:56.041Z,4.65
2022-10-10T06:44:24.410Z,4.63
2022-10-10T06:46:52.637Z,4.03
2022-10-10T06:49:22.426Z,4.00
2022-10-10T06:51:50.604Z,4.00
2022-10-10T06:54:18.927Z,3.92
2022-10-10T06:56:46.982Z,4.10
2022-10-10T06:59:15.423Z,3.60
2022-10-10T07:01:43.676Z,3.42
2022-10-10T07:04:13.345Z,3.80
2022-10-10T07:06:42.913Z,3.55
2022-10-10T07:09:11.245Z,3.60
2022-10-10T07:11:41.768Z,3.75
2022-10-10T07:14:10.069Z,3.75
2022-10-10T07:16:38.162Z,2.70
2022-10-10T07:19:06.477Z,3.30
2022-10-10T07:21:34.571Z,3.40
2022-10-10T07:24:04.383Z,2.92
2022-10-10T07:26:37.117Z,3.65
2022-10-10T07:29:06.142Z,3.25
2022-10-10T07:31:34.570Z,3.40
2022-10-10T07:34:02.979Z,3.08
2022-10-10T07:36:31.085Z,3.03
2022-10-10T07:38:59.604Z,3.17
2022-10-10T07:41:29.469Z,3.35
2022-10-10T07:43:57.984Z,3.55
2022-10-10T07:46:26.563Z,3.25
2022-10-10T07:48:55.031Z,3.80
2022-10-10T07:51:23.064Z,3.33
2022-10-10T07:53:52.957Z,3.60
2022-10-10T07:56:20.992Z,3.70
2022-10-10T07:58:50.651Z,3.55
2022-10-10T08:01:19.104Z,3.25
2022-10-10T08:03:48.682Z,3.97
2022-10-10T08:06:18.408Z,3.80
2022-10-10T08:08:51.678Z,3.58
2022-10-10T08:11:20.860Z,3.40
2022-10-10T08:13:50.874Z,3.25
2022-10-10T08:16:19.421Z,4.25
2022-10-10T08:18:47.999Z,2.97
2022-10-10T08:21:17.244Z,3.45
2022-10-10T08:23:45.778Z,2.97
2022-10-10T08:26:15.830Z,3.00
2022-10-10T08:28:44.572Z,3.13
2022-10-10T08:31:16.020Z,3.20
2022-10-10T08:33:46.068Z,2.67
2022-10-10T08:36:16.655Z,3.17
2022-10-10T08:38:45.246Z,2.80
2022-10-10T08:41:20.747Z,3.03
2022-10-10T08:43:51.849Z,3.20
2022-10-10T08:46:28.642Z,3.15
2022-10-10T08:48:58.239Z,3.00
2022-10-10T08:51:29.150Z,2.83
2022-10-10T08:53:59.543Z,3.38
2022-10-10T08:56:32.720Z,3.80
2022-10-10T08:59:04.987Z,3.28
2022-10-10T09:02:18.948Z,3.25
2022-10-10T09:04:30.463Z,3.22
2022-10-10T09:07:10.692Z,3.20
2022-10-10T09:09:45.678Z,3.67
2022-10-10T09:12:23.014Z,3.53
2022-10-10T09:14:59.757Z,3.08
2022-10-10T09:17:37.759Z,2.53
2022-10-10T09:20:23.347Z,2.70
2022-10-10T09:22:55.325Z,3.42
2022-10-10T09:25:25.338Z,2.65
2022-10-10T09:28:00.398Z,2.90
2022-10-10T09:30:29.018Z,3.28
2022-10-10T09:33:02.370Z,2.55
2022-10-10T09:35:32.615Z,2.63
2022-10-10T09:38:04.309Z,3.00
2022-10-10T09:40:36.099Z,2.42
2022-10-10T09:43:12.621Z,2.63
2022-10-10T09:45:46.095Z,2.28
2022-10-10T09:48:15.936Z,2.50
2022-10-10T09:50:44.082Z,2.70
2022-10-10T09:53:15.435Z,2.78
2022-10-10T09:55:44.539Z,2.47
2022-10-10T09:58:18.328Z,2.53
2022-10-10T10:00:46.900Z,3.05
2022-10-10T10:03:18.362Z,2.80
2022-10-10T10:05:48.555Z,2.40
2022-10-10T10:08:25.904Z,3.13
2022-10-10T10:10:57.992Z,3.13
2022-10-10T10:13:29.684Z,2.53
2022-10-10T10:16:08.602Z,2.75
2022-10-10T10:18:43.324Z,3.00
2022-10-10T10:21:18.279Z,2.55
2022-10-10T10:23:53.211Z,2.90
2022-10-10T10:26:24.507Z,2.90
2022-10-10T10:28:53.961Z,2.45
2022-10-10T10:31:45.599Z,3.00
2022-10-10T10:34:35.376Z,2.85
2022-10-10T10:37:14.699Z,2.75
2022-10-10T10:39:52.475Z,2.67
2022-10-10T10:42:31.750Z,2.72
2022-10-10T10:45:04.659Z,2.60
2022-10-10T10:47:42.369Z,3.35
2022-10-10T10:50:28.735Z,2.60
2022-10-10T10:53:01.676Z,2.83
2022-10-10T10:55:39.387Z,3.35
2022-10-10T11:01:24.194Z,3.55
2022-10-10T11:05:18.611Z,3.60
2022-10-10T11:07:17.864Z,3.78
2022-10-10T11:09:54.907Z,3.65
2022-10-10T11:12:34.586Z,2.78
2022-10-10T11:15:04.972Z,2.92
2022-10-10T11:17:37.834Z,2.60
2022-10-10T11:20:13.687Z,3.00
2022-10-10T11:22:47.506Z,3.05
2022-10-10T11:25:22.010Z,2.40
2022-10-10T11:27:54.393Z,3.72
2022-10-10T11:30:25.111Z,2.75
2022-10-10T11:32:56.910Z,2.60
2022-10-10T11:35:38.136Z,2.42
2022-10-10T11:38:15.499Z,2.80
2022-10-10T11:40:48.375Z,3.28
2022-10-10T11:43:24.148Z,3.20
2022-10-10T11:46:01.918Z,3.05
2022-10-10T11:48:38.910Z,3.40
2022-10-10T11:51:23.790Z,3.35
2022-10-10T11:53:57.878Z,2.67
2022-10-10T11:56:29.162Z,4.60
2022-10-10T11:59:01.892Z,4.38
2022-10-10T12:01:32.115Z,2.78
2022-10-10T12:04:00.505Z,3.15
2022-10-10T12:06:33.332Z,3.80
2022-10-10T12:09:07.159Z,3.80
2022-10-10T12:11:40.559Z,3.80
2022-10-10T12:14:10.214Z,3.95
2022-10-10T12:16:39.019Z,3.13
2022-10-10T12:19:08.996Z,4.38
2022-10-10T12:21:55.497Z,3.17
2022-10-10T12:24:25.724Z,3.60
2022-10-10T12:27:30.556Z,4.10
2022-10-10T12:30:21.546Z,4.93
2022-10-10T12:32:54.213Z,3.40
2022-10-10T12:35:43.187Z,5.60
2022-10-10T12:38:17.164Z,3.92
2022-10-10T12:41:09.203Z,4.20
2022-10-10T12:43:52.369Z,4.60
2022-10-10T12:46:29.304Z,3.42
2022-10-10T12:49:03.077Z,3.40
2022-10-10T12:51:33.762Z,3.75
2022-10-10T12:54:04.511Z,3.58
2022-10-10T12:56:37.239Z,3.35
2022-10-10T12:59:07.516Z,5.28
2022-10-10T13:01:39.715Z,3.72
2022-10-10T13:04:07.911Z,3.33
2022-10-10T13:06:39.394Z,4.60
2022-10-10T13:11:57.226Z,3.35
2022-10-10T13:14:26.219Z,3.28
2022-10-10T13:16:54.849Z,4.30
2022-10-10T13:19:24.494Z,4.70
2022-10-10T13:21:54.360Z,3.67
2022-10-10T13:24:26.560Z,5.03
2022-10-10T13:26:56.795Z,4.35
2022-10-10T13:29:27.938Z,4.13
2022-10-10T13:31:59.906Z,4.05
2022-10-10T13:34:29.680Z,6.55
2022-10-10T13:37:00.628Z,3.53
2022-10-10T13:39:30.292Z,4.10
2022-10-10T13:42:00.381Z,3.90
2022-10-10T13:44:33.703Z,3.45
2022-10-10T13:47:35.511Z,4.18
2022-10-10T13:52:32.385Z,3.45
2022-10-10T13:55:15.730Z,3.88
2022-10-10T13:57:45.504Z,4.47
2022-10-10T14:00:18.551Z,4.25
2022-10-10T14:02:46.974Z,4.30
2022-10-10T14:05:17.924Z,3.53
2022-10-10T14:07:49.568Z,3.60
2022-10-10T14:12:52.583Z,3.75
2022-10-10T14:15:38.662Z,6.45
2022-10-10T14:18:16.856Z,3.72
2022-10-10T14:20:45.331Z,4.93
2022-10-10T14:23:13.903Z,4.80
2022-10-10T14:25:43.504Z,3.70
2022-10-10T14:28:17.900Z,4.75
2022-10-10T14:30:46.762Z,4.70
2022-10-10T14:33:16.611Z,4.35
2022-10-10T14:35:45.830Z,4.50
2022-10-10T14:38:14.802Z,3.10
2022-10-10T14:40:44.868Z,3.42
2022-10-10T14:43:13.367Z,3.00
2022-10-10T14:45:43.078Z,3.35
2022-10-10T14:48:12.056Z,2.83
2022-10-10T14:50:44.048Z,3.03
2022-10-10T14:53:12.431Z,3.30
2022-10-10T14:55:43.588Z,3.00
2022-10-10T14:58:15.598Z,3.53
2022-10-10T15:00:45.612Z,3.50
2022-10-10T15:03:14.080Z,3.10
2022-10-10T15:05:42.622Z,4.32
2022-10-10T15:08:13.724Z,4.35
2022-10-10T15:10:42.242Z,4.15
2022-10-10T15:13:10.983Z,3.95
2022-10-10T15:15:39.284Z,3.13
2022-10-10T15:18:25.698Z,3.10
2022-10-10T15:20:57.763Z,2.83
2022-10-10T15:23:27.347Z,3.20
2022-10-10T15:25:55.612Z,2.63
2022-10-10T15:28:23.924Z,2.33
2022-10-10T15:30:52.773Z,2.63
2022-10-10T15:33:22.503Z,2.55
2022-10-10T15:36:09.015Z,2.33
2022-10-10T15:38:38.196Z,2.80
2022-10-10T15:41:09.108Z,2.35
2022-10-10T15:43:44.680Z,2.60
2022-10-10T15:46:13.073Z,2.70
2022-10-10T15:48:42.515Z,2.30
2022-10-10T15:51:10.804Z,2.38
2022-10-10T15:53:39.211Z,3.53
2022-10-10T15:56:10.298Z,2.55
2022-10-10T16:01:12.255Z,3.35
2022-10-10T16:03:42.338Z,2.90
2022-10-10T16:06:10.672Z,3.88
2022-10-10T16:08:39.215Z,3.42
2022-10-10T16:11:08.437Z,3.10
2022-10-10T16:13:37.583Z,3.30
2022-10-10T16:16:07.259Z,3.65
2022-10-10T16:18:40.212Z,3.40
2022-10-10T16:21:11.686Z,3.80
2022-10-10T16:23:40.606Z,3.92
2022-10-10T16:26:10.590Z,4.05
2022-10-10T16:28:38.666Z,5.38
2022-10-10T16:31:08.730Z,7.28
2022-10-10T16:33:38.828Z,6.80
2022-10-10T16:36:10.744Z,7.53
2022-10-10T16:38:39.021Z,6.57
2022-10-10T16:41:19.640Z,6.38
2022-10-10T16:43:57.477Z,6.20
2022-10-10T16:46:27.653Z,6.18
2022-10-10T16:48:58.452Z,6.38
2022-10-10T16:51:29.806Z,5.95
2022-10-10T16:54:01.205Z,7.82
2022-10-10T16:56:30.790Z,9.27
2022-10-10T16:58:59.822Z,9.32
2022-10-10T17:01:28.925Z,7.07
2022-10-10T17:04:00.434Z,7.78
2022-10-10T17:06:35.316Z,7.13
2022-10-10T17:09:05.639Z,8.57
2022-10-10T17:11:34.396Z,7.53
2022-10-10T17:14:02.585Z,11.18
2022-10-10T17:17:06.854Z,13.68
2022-10-10T17:19:19.582Z,7.63
2022-10-10T17:21:49.334Z,7.18
2022-10-10T17:24:17.831Z,6.78
2022-10-10T17:26:46.107Z,7.00
2022-10-10T17:29:14.754Z,8.07
2022-10-10T17:31:43.069Z,8.10
2022-10-10T17:34:11.199Z,9.52
2022-10-10T17:36:39.744Z,9.23
2022-10-10T17:39:09.489Z,9.27
2022-10-10T17:41:37.702Z,8.23
2022-10-10T17:44:10.606Z,9.65
2022-10-10T17:46:39.762Z,8.43
2022-10-10T17:49:12.598Z,9.73
2022-10-10T17:51:42.055Z,9.05
2022-10-10T17:54:13.549Z,8.15
2022-10-10T17:56:44.631Z,8.18
2022-10-10T17:59:13.180Z,7.18
2022-10-10T18:01:42.323Z,7.35
2022-10-10T18:04:10.489Z,7.93
2022-10-10T18:06:39.030Z,6.78
2022-10-10T18:09:07.477Z,8.05
2022-10-10T18:11:37.023Z,7.07
2022-10-10T18:14:05.344Z,6.82
2022-10-10T18:16:35.185Z,6.95
2022-10-10T18:19:04.969Z,6.82
2022-10-10T18:21:33.429Z,7.43
2022-10-10T18:24:01.858Z,7.05
2022-10-10T18:26:31.055Z,6.53
2022-10-10T18:29:00.919Z,7.25
2022-10-10T18:31:31.327Z,7.10
2022-10-10T18:33:59.806Z,6.80
2022-10-10T18:36:30.564Z,7.25
2022-10-10T18:38:59.700Z,7.82
2022-10-10T18:41:34.190Z,7.57
2022-10-10T18:44:05.501Z,7.00
2022-10-10T18:46:34.172Z,8.13
2022-10-10T18:49:02.394Z,7.72
2022-10-10T18:51:31.110Z,7.90
2022-10-10T18:54:03.524Z,8.82
2022-10-10T18:56:33.314Z,8.73
2022-10-10T18:59:04.942Z,11.18
2022-10-10T19:04:03.989Z,9.53
2022-10-10T19:06:32.719Z,9.65
2022-10-10T19:09:01.909Z,10.40
2022-10-10T19:11:33.160Z,9.05
2022-10-10T19:14:06.025Z,10.40
2022-10-10T19:16:35.290Z,10.70
2022-10-10T19:19:04.085Z,10.85
2022-10-10T19:21:33.621Z,10.45
2022-10-10T19:24:02.875Z,10.93
2022-10-10T19:26:33.377Z,12.52
2022-10-10T19:29:06.396Z,12.35
2022-10-10T19:31:36.796Z,13.98
2022-10-10T19:34:05.741Z,12.40
2022-10-10T19:36:36.137Z,14.18
2022-10-10T19:39:07.186Z,18.92
2022-10-10T19:41:35.679Z,13.30
2022-10-10T19:44:05.547Z,13.43
2022-10-10T19:46:37.191Z,15.93
2022-10-10T19:49:07.439Z,15.32
2022-10-10T19:51:35.831Z,16.52
2022-10-10T19:54:04.027Z,16.60
2022-10-10T19:56:32.242Z,18.15
2022-10-10T19:59:04.306Z,12.90
2022-10-10T20:01:32.867Z,13.55
2022-10-10T20:04:01.469Z,12.82
2022-10-10T20:06:31.217Z,13.32
2022-10-10T20:09:00.004Z,12.65
2022-10-10T20:11:28.352Z,12.60
2022-10-10T20:13:57.493Z,11.98
2022-10-10T20:16:27.246Z,12.90
2022-10-10T20:18:57.272Z,13.20
2022-10-10T20:21:31.300Z,13.30
2022-10-10T20:24:02.917Z,14.13
2022-10-10T20:26:31.308Z,15.82
2022-10-10T20:29:00.322Z,14.32
2022-10-10T20:31:30.337Z,13.18
2022-10-10T20:34:00.841Z,12.95
2022-10-10T20:36:29.861Z,13.77
2022-10-10T20:39:00.680Z,14.93
2022-10-10T20:41:32.505Z,14.57
2022-10-10T20:44:03.242Z,14.05
2022-10-10T20:46:35.003Z,14.30
2022-10-10T20:49:05.047Z,14.70
2022-10-10T20:51:33.180Z,14.63
2022-10-10T20:54:02.746Z,15.23
2022-10-10T20:56:34.177Z,14.20
2022-10-10T20:59:02.293Z,14.43
2022-10-10T21:01:31.542Z,14.48
2022-10-10T21:04:00.486Z,13.70
2022-10-10T21:06:30.614Z,15.02
2022-10-10T21:09:00.829Z,14.80
2022-10-10T21:11:29.369Z,14.95
2022-10-10T21:14:00.060Z,14.52
2022-10-10T21:16:30.256Z,14.88
2022-10-10T21:18:58.892Z,16.60
2022-10-10T21:21:28.415Z,19.17
2022-10-10T21:23:57.116Z,23.40
2022-10-10T21:26:27.198Z,25.05
2022-10-10T21:28:55.925Z,22.35
2022-10-10T21:31:27.903Z,20.73
2022-10-10T21:33:56.879Z,22.80
2022-10-10T21:36:26.621Z,22.10
2022-10-10T21:38:54.756Z,20.40
2022-10-10T21:41:23.739Z,22.50
2022-10-10T21:43:54.873Z,19.90
2022-10-10T21:48:55.548Z,22.50
2022-10-10T21:51:25.010Z,19.65
2022-10-10T21:53:53.205Z,18.70
2022-10-10T21:56:21.411Z,18.90
2022-10-10T21:58:49.642Z,19.45
2022-10-10T22:01:19.438Z,17.70
2022-10-10T22:03:49.889Z,18.55
2022-10-10T22:06:22.347Z,18.52
2022-10-10T22:08:51.981Z,19.75
2022-10-10T22:11:23.407Z,16.02
2022-10-10T22:13:52.328Z,14.82
2022-10-10T22:16:21.084Z,14.88
2022-10-10T22:18:49.383Z,14.63
2022-10-10T22:21:19.211Z,13.45
2022-10-10T22:23:47.399Z,12.57
2022-10-10T22:26:16.935Z,12.45
2022-10-10T22:28:46.412Z,12.40
2022-10-10T22:31:18.390Z,11.68
2022-10-10T22:33:46.929Z,10.77
2022-10-10T22:36:15.395Z,11.05
2022-10-10T22:38:46.519Z,10.48
2022-10-10T22:41:14.752Z,9.50
2022-10-10T22:43:42.989Z,10.52
2022-10-10T22:46:11.419Z,8.88
2022-10-10T22:48:39.636Z,10.02
2022-10-10T22:51:09.471Z,9.32
2022-10-10T22:53:37.852Z,10.27
2022-10-10T22:56:08.464Z,9.55
2022-10-10T22:58:36.887Z,10.20
2022-10-10T23:01:05.999Z,9.52
2022-10-10T23:03:34.333Z,10.30
2022-10-10T23:06:03.226Z,9.48
2022-10-10T23:08:31.575Z,9.63
2022-10-10T23:10:59.715Z,9.88
2022-10-10T23:13:29.591Z,8.45
2022-10-10T23:15:57.869Z,8.07
2022-10-10T23:18:26.137Z,9.10
2022-10-10T23:20:54.345Z,8.55
2022-10-10T23:23:22.651Z,7.88
2022-10-10T23:25:50.790Z,8.45
2022-10-10T23:28:19.557Z,8.30
2022-10-10T23:30:49.983Z,7.60
2022-10-10T23:33:18.538Z,7.75
2022-10-10T23:35:57.672Z,7.40
2022-10-10T23:38:26.041Z,7.28
2022-10-10T23:40:54.528Z,8.20
2022-10-10T23:43:23.327Z,7.38
2022-10-10T23:45:52.919Z,7.35
2022-10-10T23:48:21.186Z,7.00
2022-10-10T23:50:49.396Z,7.25
2022-10-10T23:53:17.451Z,7.80
2022-10-10T23:55:47.293Z,6.55
2022-10-10T23:58:15.654Z,6.93
